Time;durP1;ratioP1;P1;durP2;ratioP2;P2;SDS_P1;SDS_P2;PMS_P1;PMS_P2;Temp;Humidity;BMP_temperature;BMP_pressure;BME280_temperature;BME280_humidity;BME280_pressure;Samples;Min_cycle;Max_cycle;Signal;HPM_P1;HPM_P2
2021/09/13 00:00:35;;;;;;;;;;;;;;;19.23;100.00;99251.72;5097735;28;19924;-61
2021/09/13 00:03:00;;;;;;;;;;;;;;;19.18;100.00;99252.94;5098525;28;19927;-64
2021/09/13 00:05:25;;;;;;;;;;;;;;;19.25;100.00;99256.88;5095964;28;19973;-63
2021/09/13 00:07:51;;;;;;;;;;;;;;;19.09;100.00;99254.38;5075755;28;19996;-62
2021/09/13 00:10:16;;;;;;;;;;;;;;;19.08;100.00;99255.31;5097215;28;19963;-60
2021/09/13 00:12:41;;;;;;;;;;;;;;;19.16;100.00;99260.88;5103977;28;20276;-62
2021/09/13 00:15:07;;;;;;;;;;;;;;;19.22;100.00;99255.25;5099057;28;19927;-60
2021/09/13 00:17:33;;;;;;;;;;;;;;;19.13;100.00;99255.00;5106720;28;19947;-62
2021/09/13 00:19:58;;;;;;;;;;;;;;;18.99;100.00;99250.66;5085472;28;20013;-62
2021/09/13 00:22:24;;;;;;;;;;;;;;;19.09;100.00;99248.31;5098848;28;19951;-61
2021/09/13 00:24:49;;;;;;;;;;;;;;;19.01;100.00;99251.41;5102773;28;19918;-62
2021/09/13 00:27:14;;;;;;;;;;;;;;;18.77;100.00;99254.63;5078760;28;19919;-63
2021/09/13 00:29:40;;;;;;;;;;;;;;;18.39;100.00;99254.31;5098759;28;19924;-62
2021/09/13 00:32:05;;;;;;;;;;;;;;;18.52;100.00;99251.78;5094971;28;20669;-63
2021/09/13 00:34:31;;;;;;;;;;;;;;;18.48;100.00;99250.31;5096356;28;20050;-60
2021/09/13 00:36:57;;;;;;;;;;;;;;;18.55;100.00;99249.00;5097584;28;19947;-60
2021/09/13 00:39:22;;;;;;;;;;;;;;;18.48;100.00;99245.09;5097161;28;21251;-61
2021/09/13 00:41:47;;;;;;;;;;;;;;;18.43;100.00;99240.16;5098539;28;19911;-62
2021/09/13 00:44:13;;;;;;;;;;;;;;;18.57;100.00;99249.75;5098576;28;19923;-62
2021/09/13 00:46:38;;;;;;;;;;;;;;;18.63;100.00;99251.97;5098221;28;19935;-63
2021/09/13 00:49:04;;;;;;;;;;;;;;;18.61;100.00;99253.84;5097888;28;19916;-62
2021/09/13 00:51:29;;;;;;;;;;;;;;;18.64;100.00;99245.84;5097760;28;20367;-64
2021/09/13 00:53:54;;;;;;;;;;;;;;;18.52;100.00;99241.34;5079580;28;19958;-62
2021/09/13 00:56:20;;;;;;;;;;;;;;;18.51;100.00;99243.13;5098535;28;19932;-62
2021/09/13 00:58:45;;;;;;;;;;;;;;;18.56;100.00;99240.22;5079239;28;19920;-63
2021/09/13 01:01:10;;;;;;;;;;;;;;;18.55;100.00;99249.00;5080542;28;19927;-62
2021/09/13 01:03:36;;;;;;;;;;;;;;;18.57;100.00;99239.31;5099346;28;19912;-61
2021/09/13 01:06:01;;;;;;;;;;;;;;;18.46;100.00;99239.97;5104363;28;19915;-64
2021/09/13 01:08:26;;;;;;;;;;;;;;;18.54;100.00;99245.56;5083893;28;19957;-62
2021/09/13 01:10:52;;;;;;;;;;;;;;;18.56;100.00;99246.28;5100587;28;19920;-62
2021/09/13 01:13:17;;;;;;;;;;;;;;;18.37;100.00;99246.56;5082633;28;19927;-61
2021/09/13 01:15:43;;;;;;;;;;;;;;;18.46;100.00;99246.97;5097744;28;19928;-62
2021/09/13 01:18:08;;;;;;;;;;;;;;;18.51;100.00;99247.50;5111877;28;20007;-62
2021/09/13 01:20:34;;;;;;;;;;;;;;;18.52;100.00;99246.56;5105965;28;20368;-61
2021/09/13 01:23:10;;;;;;;;;;;;;;;18.46;100.00;99244.34;5102974;28;20555;-62
2021/09/13 01:25:36;;;;;;;;;;;;;;;18.56;100.00;99248.06;5080846;28;19942;-63
2021/09/13 01:28:01;;;;;;;;;;;;;;;18.56;100.00;99246.28;5099588;28;19938;-63
2021/09/13 01:30:27;;;;;;;;;;;;;;;18.41;100.00;99243.81;5100861;28;19920;-62
2021/09/13 01:32:52;;;;;;;;;;;;;;;18.30;100.00;99249.66;5099609;28;19926;-60
2021/09/13 01:35:17;;;;;;;;;;;;;;;18.50;100.00;99248.47;5081943;28;19938;-62
2021/09/13 01:37:47;;;;;;;;;;;;;;;18.51;100.00;99258.78;5100694;28;19916;-62
2021/09/13 01:40:12;;;;;;;;;;;;;;;18.59;100.00;99253.13;5100691;28;19919;-62
2021/09/13 01:42:38;;;;;;;;;;;;;;;18.15;100.00;99261.81;5078579;28;20516;-62
2021/09/13 01:45:03;;;;;;;;;;;;;;;18.22;100.00;99257.91;5100130;28;19955;-60
2021/09/13 01:47:30;;;;;;;;;;;;;;;18.28;100.00;99256.72;5099296;28;20233;-62
2021/09/13 01:49:55;;;;;;;;;;;;;;;18.57;100.00;99254.97;5064614;28;19923;-60
2021/09/13 01:52:20;;;;;;;;;;;;;;;18.68;100.00;99255.16;5100614;28;19942;-63
2021/09/13 01:54:47;;;;;;;;;;;;;;;18.74;100.00;99259.97;5098005;28;19931;-62
2021/09/13 01:57:12;;;;;;;;;;;;;;;18.73;100.00;99258.31;5100574;28;19965;-62
2021/09/13 01:59:38;;;;;;;;;;;;;;;18.65;100.00;99257.94;5099691;28;20389;-62
2021/09/13 02:02:03;;;;;;;;;;;;;;;18.61;100.00;99256.47;5099796;28;20006;-63
2021/09/13 02:04:29;;;;;;;;;;;;;;;18.57;100.00;99260.19;5082080;28;20002;-63
2021/09/13 02:06:55;;;;;;;;;;;;;;;18.68;100.00;99255.16;5100687;28;19920;-61
2021/09/13 02:09:20;;;;;;;;;;;;;;;18.69;100.00;99256.81;5099900;28;19926;-61
2021/09/13 02:11:46;;;;;;;;;;;;;;;18.75;100.00;99253.84;5101289;28;19958;-62
2021/09/13 02:14:11;;;;;;;;;;;;;;;18.72;100.00;99251.41;5096466;28;19916;-62
2021/09/13 02:16:36;;;;;;;;;;;;;;;18.71;100.00;99257.56;5100348;28;20014;-61
2021/09/13 02:19:02;;;;;;;;;;;;;;;18.83;100.00;99258.59;5098591;28;19958;-61
2021/09/13 02:21:27;;;;;;;;;;;;;;;18.81;100.00;99258.69;5100327;28;20361;-61
2021/09/13 02:23:53;;;;;;;;;;;;;;;18.72;100.00;99256.63;5101173;28;19988;-60
2021/09/13 02:26:18;;;;;;;;;;;;;;;18.22;100.00;99247.47;5100146;28;19916;-60
2021/09/13 02:28:43;;;;;;;;;;;;;;;18.30;100.00;99247.88;5099798;28;19920;-60
2021/09/13 02:31:09;;;;;;;;;;;;;;;18.64;100.00;99245.84;5102982;28;19916;-63
2021/09/13 02:33:34;;;;;;;;;;;;;;;18.76;100.00;99247.69;5098265;28;20745;-62
2021/09/13 02:36:00;;;;;;;;;;;;;;;18.77;100.00;99244.19;5100554;28;20369;-61
2021/09/13 02:38:25;;;;;;;;;;;;;;;18.72;100.00;99246.19;5104665;28;19920;-60
2021/09/13 02:40:51;;;;;;;;;;;;;;;18.72;100.00;99235.75;5098702;28;20026;-64
2021/09/13 02:43:16;;;;;;;;;;;;;;;18.75;100.00;99232.97;5098581;28;19920;-60
2021/09/13 02:45:41;;;;;;;;;;;;;;;18.77;100.00;99233.75;5101524;28;19918;-62
2021/09/13 02:48:07;;;;;;;;;;;;;;;18.73;100.00;99242.66;5108702;28;20045;-63
2021/09/13 02:50:32;;;;;;;;;;;;;;;18.71;100.00;99241.91;5100621;28;19965;-63
2021/09/13 02:52:58;;;;;;;;;;;;;;;18.68;100.00;99244.72;5100295;28;19924;-62
2021/09/13 02:55:24;;;;;;;;;;;;;;;18.49;100.00;99244.97;5094612;28;20007;-62
2021/09/13 02:57:49;;;;;;;;;;;;;;;18.58;100.00;99239.22;5073322;28;19955;-62
2021/09/13 03:00:15;;;;;;;;;;;;;;;18.55;100.00;99238.56;5099749;28;19969;-63
2021/09/13 03:02:43;;;;;;;;;;;;;;;18.48;100.00;99242.50;5110635;28;19912;-62
2021/09/13 03:05:09;;;;;;;;;;;;;;;18.58;100.00;99238.38;5099829;28;19915;-62
2021/09/13 03:07:34;;;;;;;;;;;;;;;18.46;100.00;99239.97;5102781;28;19922;-62
2021/09/13 03:09:59;;;;;;;;;;;;;;;18.14;100.00;99244.50;5098768;28;20998;-62
2021/09/13 03:12:25;;;;;;;;;;;;;;;18.27;100.00;99242.84;5100721;28;19961;-60
2021/09/13 03:14:50;;;;;;;;;;;;;;;18.29;100.00;99241.00;5087916;28;20443;-61
2021/09/13 03:17:15;;;;;;;;;;;;;;;18.31;100.00;99244.31;5106126;28;19975;-61
2021/09/13 03:19:41;;;;;;;;;;;;;;;18.28;100.00;99247.13;5099731;28;20163;-64
2021/09/13 03:22:06;;;;;;;;;;;;;;;18.28;100.00;99247.13;5098370;28;19930;-63
2021/09/13 03:24:31;;;;;;;;;;;;;;;18.26;100.00;99241.16;5099340;28;19919;-62
2021/09/13 03:26:57;;;;;;;;;;;;;;;18.26;100.00;99242.94;5100146;28;20311;-61
2021/09/13 03:29:22;;;;;;;;;;;;;;;18.34;100.00;99240.72;5080684;28;19919;-62
2021/09/13 03:31:47;;;;;;;;;;;;;;;18.31;100.00;99246.94;5098625;28;19923;-62
2021/09/13 03:34:13;;;;;;;;;;;;;;;18.30;100.00;99237.44;5097245;28;20571;-63
2021/09/13 03:36:39;;;;;;;;;;;;;;;18.31;100.00;99240.88;5097772;28;19930;-62
2021/09/13 03:39:05;;;;;;;;;;;;;;;18.37;100.00;99243.13;5099887;28;19940;-62
2021/09/13 03:41:30;;;;;;;;;;;;;;;18.29;100.00;99238.38;5097539;28;19920;-60
2021/09/13 03:43:56;;;;;;;;;;;;;;;18.36;100.00;99239.69;5098598;28;19992;-63
2021/09/13 03:46:22;;;;;;;;;;;;;;;18.38;100.00;99237.84;5079944;28;19974;-63
2021/09/13 03:48:47;;;;;;;;;;;;;;;18.37;100.00;99243.13;5082544;28;19941;-62
2021/09/13 03:51:12;;;;;;;;;;;;;;;18.34;100.00;99236.34;5096609;28;19965;-62
2021/09/13 03:53:37;;;;;;;;;;;;;;;18.36;100.00;99239.69;5096443;28;19947;-61
2021/09/13 03:56:03;;;;;;;;;;;;;;;18.29;100.00;99243.59;5098490;28;19945;-62
2021/09/13 03:58:28;;;;;;;;;;;;;;;18.38;100.00;99235.22;5098713;28;19920;-62
2021/09/13 04:00:54;;;;;;;;;;;;;;;18.48;100.00;99237.28;5098598;28;20521;-60
2021/09/13 04:03:24;;;;;;;;;;;;;;;18.49;100.00;99244.16;5100121;28;20338;-62
2021/09/13 04:05:52;;;;;;;;;;;;;;;18.49;100.00;99244.16;5092724;28;19957;-62
2021/09/13 04:13:23;;;;;;;;;;;;;;;18.18;100.00;99240.78;5099133;28;19927;-62
2021/09/13 04:15:49;;;;;;;;;;;;;;;18.31;100.00;99239.09;5098662;28;19923;-62
2021/09/13 04:18:15;;;;;;;;;;;;;;;18.39;100.00;99229.06;5102918;28;20284;-61
2021/09/13 04:20:40;;;;;;;;;;;;;;;18.30;100.00;99229.63;5096556;28;20369;-62
2021/09/13 04:23:05;;;;;;;;;;;;;;;18.35;100.00;99238.00;5093252;28;20325;-62
2021/09/13 04:25:31;;;;;;;;;;;;;;;18.37;100.00;99230.94;5099625;28;20014;-62
2021/09/13 04:27:56;;;;;;;;;;;;;;;18.33;100.00;99228.59;5099390;28;19911;-63
2021/09/13 04:30:23;;;;;;;;;;;;;;;18.35;100.00;99226.75;5097940;28;20002;-63
2021/09/13 04:32:48;;;;;;;;;;;;;;;18.32;100.00;99226.94;5098993;28;19916;-62
2021/09/13 04:35:14;;;;;;;;;;;;;;;18.22;100.00;99221.41;5078158;28;20072;-61
2021/09/13 04:37:39;;;;;;;;;;;;;;;18.16;100.00;99221.81;5096698;28;19976;-60
2021/09/13 04:40:04;;;;;;;;;;;;;;;18.21;100.00;99222.34;5100504;28;19915;-61
2021/09/13 04:42:30;;;;;;;;;;;;;;;18.23;100.00;99223.09;5101595;28;19912;-62
2021/09/13 04:44:55;;;;;;;;;;;;;;;18.28;100.00;99215.84;5101084;28;20060;-62
2021/09/13 04:47:20;;;;;;;;;;;;;;;18.18;100.00;99214.72;5084738;28;19915;-62
2021/09/13 04:49:46;;;;;;;;;;;;;;;17.96;100.00;99216.00;5102337;28;19912;-62
2021/09/13 04:52:11;;;;;;;;;;;;;;;18.21;100.00;99214.53;5082115;28;19915;-62
2021/09/13 04:54:36;;;;;;;;;;;;;;;18.23;100.00;99212.69;5102199;28;19911;-63
2021/09/13 04:57:02;;;;;;;;;;;;;;;18.20;100.00;99220.69;5099235;28;19924;-64
2021/09/13 04:59:27;;;;;;;;;;;;;;;18.24;100.00;99213.50;5107506;28;20459;-62
2021/09/13 05:01:52;;;;;;;;;;;;;;;18.26;100.00;99215.09;5106806;28;19963;-63
2021/09/13 05:04:17;;;;;;;;;;;;;;;18.22;100.00;99220.59;5102893;28;19957;-60
2021/09/13 05:06:43;;;;;;;;;;;;;;;18.14;100.00;99221.03;5103152;28;19976;-62
2021/09/13 05:09:08;;;;;;;;;;;;;;;18.00;100.00;99215.81;5097413;28;20003;-60
2021/09/13 05:11:33;;;;;;;;;;;;;;;18.04;100.00;99222.50;5099888;28;19919;-62
2021/09/13 05:13:59;;;;;;;;;;;;;;;18.09;100.00;99229.16;5068400;28;20377;-62
2021/09/13 05:16:24;;;;;;;;;;;;;;;18.08;100.00;99227.44;5094448;28;20228;-61
2021/09/13 05:18:49;;;;;;;;;;;;;;;18.06;100.00;99231.91;5104413;28;19912;-61
2021/09/13 05:21:15;;;;;;;;;;;;;;;18.05;100.00;99239.84;5098273;28;19938;-62
2021/09/13 05:23:40;;;;;;;;;;;;;;;18.06;100.00;99246.72;5096253;28;20042;-67
2021/09/13 05:26:06;;;;;;;;;;;;;;;17.90;100.00;99245.03;5096735;28;20635;-63
2021/09/13 05:28:31;;;;;;;;;;;;;;;18.02;100.00;99248.69;5096519;28;19992;-62
2021/09/13 05:30:57;;;;;;;;;;;;;;;18.04;100.00;99249.44;5097566;28;19923;-65
2021/09/13 05:33:22;;;;;;;;;;;;;;;18.14;100.00;99257.53;5081982;28;19916;-62
2021/09/13 05:35:47;;;;;;;;;;;;;;;18.23;100.00;99257.00;5082320;28;19927;-60
2021/09/13 05:38:13;;;;;;;;;;;;;;;18.16;100.00;99269.56;5081425;28;20014;-62
2021/09/13 05:40:40;;;;;;;;;;;;;;;18.26;100.00;99271.63;5083705;28;19911;-61
2021/09/13 05:43:07;;;;;;;;;;;;;;;18.25;100.00;99272.56;5086898;28;20353;-61
2021/09/13 05:45:32;;;;;;;;;;;;;;;18.28;100.00;99275.81;5084723;28;20951;-63
2021/09/13 05:47:57;;;;;;;;;;;;;;;18.41;100.00;99282.91;5091110;28;19916;-59
2021/09/13 05:50:23;;;;;;;;;;;;;;;18.34;100.00;99278.06;5093278;28;19911;-62
2021/09/13 05:52:48;;;;;;;;;;;;;;;18.37;100.00;99285.69;5086653;28;20416;-62
2021/09/13 05:55:14;;;;;;;;;;;;;;;18.39;100.00;99281.22;5095975;28;19916;-62
2021/09/13 05:57:39;;;;;;;;;;;;;;;18.39;100.00;99276.00;5095788;28;19999;-62
2021/09/13 06:00:05;;;;;;;;;;;;;;;18.56;100.00;99287.19;5072354;28;19968;-61
2021/09/13 06:02:31;;;;;;;;;;;;;;;18.63;100.00;99288.50;5095331;28;19939;-62
2021/09/13 06:04:56;;;;;;;;;;;;;;;18.53;100.00;99284.78;5098509;28;19924;-63
2021/09/13 06:07:21;;;;;;;;;;;;;;;18.71;100.00;99288.88;5082683;28;19919;-61
2021/09/13 06:09:47;;;;;;;;;;;;;;;18.60;100.00;99288.69;5100034;28;19967;-62
2021/09/13 06:12:14;;;;;;;;;;;;;;;18.67;100.00;99294.38;5081783;28;19912;-63
2021/09/13 06:14:40;;;;;;;;;;;;;;;18.25;100.00;99296.84;5081868;28;20336;-62
2021/09/13 06:17:08;;;;;;;;;;;;;;;18.19;100.00;99298.03;5100099;28;19928;-62
2021/09/13 06:19:33;;;;;;;;;;;;;;;18.53;100.00;99292.59;5099843;28;19916;-61
2021/09/13 06:21:59;;;;;;;;;;;;;;;18.70;100.00;99292.44;5106472;28;19939;-61
2021/09/13 06:24:24;;;;;;;;;;;;;;;18.06;100.00;99298.84;5100481;28;19922;-63
2021/09/13 06:26:49;;;;;;;;;;;;;;;17.82;100.00;99301.09;5099691;28;20656;-61
2021/09/13 06:29:15;;;;;;;;;;;;;;;18.12;100.00;99299.31;5098924;28;20019;-63
2021/09/13 06:31:40;;;;;;;;;;;;;;;18.55;100.00;99296.78;5098430;28;19912;-62
2021/09/13 06:34:07;;;;;;;;;;;;;;;17.90;100.00;99299.75;5096702;28;20420;-64
2021/09/13 06:36:33;;;;;;;;;;;;;;;18.06;100.00;99304.88;5080544;28;20028;-64
2021/09/13 06:38:58;;;;;;;;;;;;;;;18.51;100.00;99303.13;5076398;28;19946;-63
2021/09/13 06:41:23;;;;;;;;;;;;;;;19.00;100.00;99305.38;5099998;28;20014;-63
2021/09/13 06:43:49;;;;;;;;;;;;;;;18.58;100.00;99307.03;5101339;28;19912;-62
2021/09/13 06:46:33;;;;;;;;;;;;;;;17.80;100.00;99308.97;5097666;28;19989;-62
2021/09/13 06:48:58;;;;;;;;;;;;;;;18.51;100.00;99304.88;5099105;27;19911;-63
2021/09/13 06:51:24;;;;;;;;;;;;;;;17.82;100.00;99312.34;5097554;28;19915;-62
2021/09/13 06:53:50;;;;;;;;;;;;;;;18.10;100.00;99313.38;5098405;28;20018;-63
2021/09/13 06:56:15;;;;;;;;;;;;;;;18.21;100.00;99312.75;5098340;28;20459;-64
2021/09/13 06:58:40;;;;;;;;;;;;;;;18.62;100.00;99304.25;5098661;28;19936;-61
2021/09/13 07:01:06;;;;;;;;;;;;;;;19.23;100.00;99303.94;5099763;28;19916;-61
2021/09/13 07:03:31;;;;;;;;;;;;;;;18.34;100.00;99311.94;5099698;28;20049;-61
2021/09/13 07:05:56;;;;;;;;;;;;;;;17.83;100.00;99308.81;5076672;28;19956;-61
2021/09/13 07:08:22;;;;;;;;;;;;;;;17.87;100.00;99312.94;5091028;28;20328;-61
2021/09/13 07:10:48;;;;;;;;;;;;;;;19.02;100.00;99313.09;5079757;28;19912;-62
2021/09/13 07:13:14;;;;;;;;;;;;;;;18.82;100.00;99314.34;5079377;28;19912;-62
2021/09/13 07:15:40;;;;;;;;;;;;;;;19.42;100.00;99316.66;5074705;28;19920;-62
2021/09/13 07:18:05;;;;;;;;;;;;;;;20.13;100.00;99313.91;5077139;28;19920;-62
2021/09/13 07:20:30;;;;;;;;;;;;;;;20.34;100.00;99312.47;5079426;28;20456;-60
2021/09/13 07:22:56;;;;;;;;;;;;;;;20.34;100.00;99320.31;5076424;28;19919;-61
2021/09/13 07:25:21;;;;;;;;;;;;;;;20.41;100.00;99318.13;5077656;28;20025;-63
2021/09/13 07:27:46;;;;;;;;;;;;;;;20.80;100.00;99314.59;5074664;28;19946;-63
2021/09/13 07:30:12;;;;;;;;;;;;;;;20.24;100.00;99316.66;5079510;28;19912;-62
2021/09/13 07:32:37;;;;;;;;;;;;;;;20.70;100.00;99316.16;5081439;28;19941;-64
2021/09/13 07:35:05;;;;;;;;;;;;;;;20.68;100.00;99320.66;5078804;28;19915;-62
2021/09/13 07:37:30;;;;;;;;;;;;;;;19.07;100.00;99325.88;5075285;28;19955;-61
2021/09/13 07:39:56;;;;;;;;;;;;;;;18.75;100.00;99319.06;5078566;28;19978;-62
2021/09/13 07:42:23;;;;;;;;;;;;;;;19.10;100.00;99326.53;5082719;28;20361;-62
2021/09/13 07:44:49;;;;;;;;;;;;;;;19.39;100.00;99323.88;5078785;28;19912;-64
2021/09/13 07:47:14;;;;;;;;;;;;;;;20.23;100.00;99325.41;5079196;28;20586;-62
2021/09/13 07:49:39;;;;;;;;;;;;;;;20.56;100.00;99321.47;5079197;28;19920;-62
2021/09/13 07:52:05;;;;;;;;;;;;;;;20.45;100.00;99328.28;5078843;28;19916;-62
2021/09/13 07:54:30;;;;;;;;;;;;;;;20.93;100.00;99332.06;5084292;28;19919;-60
2021/09/13 07:56:55;;;;;;;;;;;;;;;21.27;100.00;99328.75;5080383;28;21111;-63
2021/09/13 07:59:21;;;;;;;;;;;;;;;21.52;100.00;99334.88;5076023;28;19912;-62
2021/09/13 08:01:46;;;;;;;;;;;;;;;21.20;100.00;99335.38;5077454;28;20543;-60
2021/09/13 08:04:12;;;;;;;;;;;;;;;21.34;100.00;99334.38;5077877;28;19916;-60
2021/09/13 08:06:37;;;;;;;;;;;;;;;22.00;100.00;99332.25;5097273;28;19971;-62
2021/09/13 08:09:03;;;;;;;;;;;;;;;21.69;100.00;99333.66;5096210;28;19916;-63
2021/09/13 08:11:28;;;;;;;;;;;;;;;22.04;100.00;99332.88;5097221;28;20438;-61
2021/09/13 08:13:53;;;;;;;;;;;;;;;21.98;100.00;99344.63;5098015;28;20007;-62
2021/09/13 08:16:20;;;;;;;;;;;;;;;22.24;100.00;99334.03;5106674;28;19916;-61
2021/09/13 08:18:45;;;;;;;;;;;;;;;22.54;100.00;99336.97;5097654;28;19920;-61
2021/09/13 08:21:11;;;;;;;;;;;;;;;22.64;100.00;99337.09;5086270;28;19915;-62
2021/09/13 08:23:36;;;;;;;;;;;;;;;22.49;100.00;99333.84;5102793;28;19916;-62
2021/09/13 08:26:05;;;;;;;;;;;;;;;23.03;100.00;99331.53;5103865;28;19923;-62
2021/09/13 08:28:30;;;;;;;;;;;;;;;23.27;100.00;99340.09;5103386;28;19931;-63
2021/09/13 08:30:56;;;;;;;;;;;;;;;23.36;100.00;99339.38;5103087;28;19916;-63
2021/09/13 08:33:21;;;;;;;;;;;;;;;23.49;100.00;99346.25;5082583;28;19961;-60
2021/09/13 08:35:48;;;;;;;;;;;;;;;23.85;100.00;99352.19;5068449;28;19931;-60
2021/09/13 08:38:13;;;;;;;;;;;;;;;23.46;100.00;99354.41;5100503;28;20361;-61
2021/09/13 08:40:39;;;;;;;;;;;;;;;23.58;100.00;99351.63;5081097;28;19912;-63
2021/09/13 08:43:05;;;;;;;;;;;;;;;23.50;100.00;99358.47;5104037;28;19992;-60
2021/09/13 08:53:16;;;;;;;;;;;;;;;22.80;100.00;99372.66;5056673;28;19916;-61
2021/09/13 08:55:41;;;;;;;;;;;;;;;23.29;100.00;99371.53;5107441;28;19916;-61
2021/09/13 08:58:07;;;;;;;;;;;;;;;24.09;100.00;99365.97;5105928;28;20349;-62
2021/09/13 09:00:32;;;;;;;;;;;;;;;23.89;100.00;99372.00;5105538;28;19912;-63
2021/09/13 09:02:58;;;;;;;;;;;;;;;22.64;100.00;99373.84;5085495;28;19958;-63
2021/09/13 09:05:23;;;;;;;;;;;;;;;22.15;100.00;99377.50;5101328;28;19977;-64
2021/09/13 09:07:50;;;;;;;;;;;;;;;21.47;100.00;99384.19;5102465;28;19912;-64
2021/09/13 09:10:22;;;;;;;;;;;;;;;21.03;100.00;99382.88;5085271;28;19923;-61
2021/09/13 09:13:14;;;;;;;;;;;;;;;20.41;100.00;99387.00;5103290;28;20334;-63
2021/09/13 09:16:06;;;;;;;;;;;;;;;20.93;100.00;99381.81;5099104;28;19919;-62
2021/09/13 09:18:38;;;;;;;;;;;;;;;21.93;100.00;99379.06;5097070;28;19915;-63
2021/09/13 09:21:04;;;;;;;;;;;;;;;24.25;98.46;99378.69;5102030;28;19911;-62
2021/09/13 09:23:30;;;;;;;;;;;;;;;25.20;94.09;99377.72;5099732;28;19955;-61
2021/09/13 09:26:03;;;;;;;;;;;;;;;24.78;93.72;99383.06;5102079;28;19959;-65
2021/09/13 09:28:33;;;;;;;;;;;;;;;25.62;93.30;99385.50;5081868;28;19912;-61
2021/09/13 09:30:58;;;;;;;;;;;;;;;25.61;97.74;99382.03;5097073;28;19939;-62
2021/09/13 09:33:25;;;;;;;;;;;;;;;21.04;100.00;99400.25;5100201;28;19912;-61
2021/09/13 09:35:57;;;;;;;;;;;;;;;21.12;100.00;99392.69;5100261;28;19920;-62
2021/09/13 09:38:29;;;;;;;;;;;;;;;21.03;100.00;99382.88;5098298;28;20454;-62
2021/09/13 09:41:00;;;;;;;;;;;;;;;22.83;100.00;99382.94;5100386;28;20269;-63
2021/09/13 09:43:26;;;;;;;;;;;;;;;21.03;100.00;99388.94;5103101;28;19916;-61
2021/09/13 09:45:51;;;;;;;;;;;;;;;23.13;100.00;99379.78;5079188;28;19912;-63
2021/09/13 09:48:16;;;;;;;;;;;;;;;22.66;97.53;99384.22;5100316;28;19912;-60
2021/09/13 09:50:42;;;;;;;;;;;;;;;23.24;92.26;99382.41;5080155;28;19915;-61
2021/09/13 09:53:14;;;;;;;;;;;;;;;22.42;93.97;99390.38;5098904;28;20309;-61
2021/09/13 09:55:40;;;;;;;;;;;;;;;23.44;100.00;99378.19;5100464;28;19916;-62
2021/09/13 09:58:06;;;;;;;;;;;;;;;26.09;88.03;99383.06;5085505;28;19916;-60
2021/09/13 10:00:32;;;;;;;;;;;;;;;22.18;100.00;99389.56;5100685;28;19915;-63
2021/09/13 10:02:57;;;;;;;;;;;;;;;21.50;100.00;99386.56;5098904;28;19916;-62
2021/09/13 10:05:26;;;;;;;;;;;;;;;21.88;100.00;99380.38;5099206;28;19923;-63
2021/09/13 10:07:52;;;;;;;;;;;;;;;22.76;100.00;99377.31;5099480;28;19973;-62
2021/09/13 10:10:18;;;;;;;;;;;;;;;23.23;100.00;99375.47;5099665;28;19919;-62
2021/09/13 10:12:44;;;;;;;;;;;;;;;26.00;98.84;99368.91;5102198;28;19916;-62
2021/09/13 10:15:09;;;;;;;;;;;;;;;26.14;80.01;99374.72;5102931;28;20369;-62
2021/09/13 10:17:35;;;;;;;;;;;;;;;26.02;82.74;99371.38;5106011;28;19943;-62
2021/09/13 10:20:01;;;;;;;;;;;;;;;25.55;80.88;99371.19;5099493;28;20419;-63
2021/09/13 10:22:27;;;;;;;;;;;;;;;25.56;80.42;99362.28;5099690;28;21064;-63
2021/09/13 10:24:53;;;;;;;;;;;;;;;26.59;79.32;99361.75;5082049;28;20013;-64
2021/09/13 10:27:20;;;;;;;;;;;;;;;24.50;71.00;99355.63;5081721;28;19920;-64
2021/09/13 10:29:46;;;;;;;;;;;;;;;26.72;84.12;99358.00;5101084;28;20381;-63
2021/09/13 10:32:14;;;;;;;;;;;;;;;27.06;67.81;99351.16;5096872;28;19930;-63
2021/09/13 10:34:40;;;;;;;;;;;;;;;26.61;64.96;99346.59;5080861;28;19999;-63
2021/09/13 10:37:17;;;;;;;;;;;;;;;25.38;80.68;99360.31;5099733;28;20073;-63
2021/09/13 10:40:01;;;;;;;;;;;;;;;26.00;90.59;99353.06;5104461;28;19916;-61
2021/09/13 10:42:43;;;;;;;;;;;;;;;23.91;77.60;99352.50;5098608;28;19916;-63
2021/09/13 10:45:11;;;;;;;;;;;;;;;21.46;97.75;99357.13;5099362;28;19915;-62
2021/09/13 10:47:36;;;;;;;;;;;;;;;25.05;86.92;99345.63;5099804;28;19922;-63
2021/09/13 10:50:11;;;;;;;;;;;;;;;27.22;80.59;99339.16;5106367;28;19916;-63
2021/09/13 10:52:36;;;;;;;;;;;;;;;25.83;66.37;99346.63;5105376;28;20365;-62
2021/09/13 10:55:08;;;;;;;;;;;;;;;24.65;84.39;99343.75;5082331;28;19919;-62
2021/09/13 10:57:56;;;;;;;;;;;;;;;23.52;93.58;99343.41;5101452;28;19912;-62
2021/09/13 11:00:43;;;;;;;;;;;;;;;24.09;77.93;99357.22;5098498;28;19912;-62
2021/09/13 11:08:38;;;;;;;;;;;;;;;26.19;81.07;99339.03;5103514;28;19926;-60
2021/09/13 11:11:17;;;;;;;;;;;;;;;26.45;79.19;99330.50;5108050;28;20003;-62
2021/09/13 11:13:43;;;;;;;;;;;;;;;27.27;80.54;99323.69;5102566;28;19915;-61
2021/09/13 11:16:08;;;;;;;;;;;;;;;24.24;88.60;99328.78;5099987;28;20357;-62
2021/09/13 11:18:44;;;;;;;;;;;;;;;26.95;86.57;99319.63;5079384;28;19964;-63
2021/09/13 11:21:19;;;;;;;;;;;;;;;24.97;77.94;99327.81;5079454;28;19915;-62
2021/09/13 11:24:05;;;;;;;;;;;;;;;26.63;75.36;99323.50;5098964;28;19915;-62
2021/09/13 11:26:31;;;;;;;;;;;;;;;26.74;75.20;99316.41;5100412;28;19933;-63
2021/09/13 11:28:57;;;;;;;;;;;;;;;25.94;76.08;99315.84;5094542;28;20389;-62
2021/09/13 11:31:26;;;;;;;;;;;;;;;26.29;74.56;99315.22;5095162;28;20002;-63
2021/09/13 11:33:51;;;;;;;;;;;;;;;24.67;78.08;99315.50;5078157;28;20344;-61
2021/09/13 11:36:23;;;;;;;;;;;;;;;25.93;72.40;99315.00;5095287;28;19923;-63
2021/09/13 11:38:55;;;;;;;;;;;;;;;24.33;71.17;99313.06;5104454;28;19912;-63
2021/09/13 11:41:21;;;;;;;;;;;;;;;26.40;80.73;99307.16;5100824;28;19916;-63
2021/09/13 11:44:15;;;;;;;;;;;;;;;27.96;76.17;99309.00;5063160;28;19920;-62
2021/09/13 11:46:51;;;;;;;;;;;;;;;26.24;66.94;99313.03;5066519;28;19915;-62
2021/09/13 11:49:17;;;;;;;;;;;;;;;25.09;65.10;99314.53;5097145;28;19964;-61
2021/09/13 11:52:01;;;;;;;;;;;;;;;28.42;80.96;99301.72;5097640;28;19919;-63
2021/09/13 11:54:26;;;;;;;;;;;;;;;29.60;64.32;99305.38;5078869;28;20441;-64
2021/09/13 11:56:51;;;;;;;;;;;;;;;24.54;71.98;99310.47;5100580;28;19942;-60
2021/09/13 11:59:26;;;;;;;;;;;;;;;27.42;66.67;99303.69;5101885;28;19912;-62
2021/09/13 12:01:57;;;;;;;;;;;;;;;26.69;81.82;99307.09;5100373;28;20369;-63
2021/09/13 12:04:23;;;;;;;;;;;;;;;29.13;66.12;99305.91;5023281;28;2030581;-61
2021/09/13 12:07:07;;;;;;;;;;;;;;;26.87;60.77;99304.53;5094979;28;19916;-62
2021/09/13 12:09:35;;;;;;;;;;;;;;;27.26;70.13;99304.34;5050532;28;19916;-62
2021/09/13 12:12:01;;;;;;;;;;;;;;;26.88;58.39;99305.34;5076920;28;20049;-62
2021/09/13 12:14:26;;;;;;;;;;;;;;;29.57;70.29;99302.19;5091201;28;20979;-63
2021/09/13 12:17:12;;;;;;;;;;;;;;;30.44;77.76;99303.38;5081262;28;19931;-60
2021/09/13 12:19:42;;;;;;;;;;;;;;;28.77;51.62;99299.94;5092040;28;20176;-63
2021/09/13 12:22:08;;;;;;;;;;;;;;;27.22;75.49;99291.56;5100993;28;19919;-63
2021/09/13 12:24:33;;;;;;;;;;;;;;;27.06;66.70;99295.66;5095398;28;19916;-63
2021/09/13 12:27:21;;;;;;;;;;;;;;;25.69;68.45;99298.75;5080051;28;19938;-63
2021/09/13 12:29:52;;;;;;;;;;;;;;;24.85;70.52;99302.53;5092570;28;19916;-63
2021/09/13 12:32:21;;;;;;;;;;;;;;;24.77;75.65;99297.94;5105952;28;20364;-63
2021/09/13 12:34:50;;;;;;;;;;;;;;;25.56;69.70;99306.91;5107764;28;19912;-63
2021/09/13 12:37:23;;;;;;;;;;;;;;;25.07;72.95;99298.06;5077205;28;19924;-64
2021/09/13 12:40:10;;;;;;;;;;;;;;;25.67;71.84;99306.78;5077815;28;20519;-63
2021/09/13 12:42:35;;;;;;;;;;;;;;;25.87;68.74;99297.09;5096399;28;20330;-61
2021/09/13 12:45:02;;;;;;;;;;;;;;;25.94;59.27;99294.75;5094438;28;19969;-61
2021/09/13 12:47:28;;;;;;;;;;;;;;;26.79;67.77;99285.91;5094996;28;19935;-63
2021/09/13 12:49:53;;;;;;;;;;;;;;;28.57;79.99;99286.09;5099347;28;19920;-60
2021/09/13 12:52:19;;;;;;;;;;;;;;;27.41;56.30;99288.78;5083353;28;19968;-60
2021/09/13 12:54:44;;;;;;;;;;;;;;;28.55;71.72;99285.41;5093007;28;19923;-62